Weather at Svalbard Airport, Longyear

Public forecast

Using degrees Celsius for public forecast. Weather courtesy of forecast.io.

Current aviation weather report (METAR) for Svalbard Airport, Longyear

Retrieved 2021/05/16 03:50 UTC (1 hour ago):

ENSB 160350Z 02006KT 9999 VCSH FEW020 BKN035 M05/M11 Q1022 RMK WIND 1400FT 35006KT

Aviation forecast (TAF) for Svalbard Airport, Longyear

Retrieved 2021-05-16 00:57 UTC (4 hours ago):

TAF ENSB 152300Z 1600/1624 32008KT 9999 SCT030